createdAt,value
2023-05-15T00:00:37.597Z,98970.09
2023-05-15T00:03:04.684Z,98962.63
2023-05-15T00:05:31.497Z,98969.59
2023-05-15T00:07:58.307Z,98962.81
2023-05-15T00:10:24.960Z,98963.00
2023-05-15T00:12:51.555Z,98960.19
2023-05-15T00:15:18.200Z,98959.78
2023-05-15T00:17:44.864Z,98949.50
2023-05-15T00:20:12.418Z,98950.59
2023-05-15T00:22:39.057Z,98946.72
2023-05-15T00:25:06.204Z,98947.59
2023-05-15T00:27:33.438Z,98934.03
2023-05-15T00:30:00.021Z,98939.06
2023-05-15T00:32:26.720Z,98934.59
2023-05-15T00:34:53.342Z,98938.28
2023-05-15T00:37:19.994Z,98933.09
2023-05-15T00:39:46.745Z,98931.34
2023-05-15T00:42:17.202Z,98920.41
2023-05-15T00:44:45.506Z,98927.09
2023-05-15T00:47:12.959Z,98920.31
2023-05-15T00:49:40.028Z,98917.94
2023-05-15T00:52:08.759Z,98915.09
2023-05-15T00:54:35.628Z,98918.78
2023-05-15T00:57:06.331Z,98911.16
2023-05-15T00:59:33.476Z,98903.31
2023-05-15T01:02:00.634Z,98918.47
2023-05-15T01:04:27.470Z,98905.16
2023-05-15T01:06:54.671Z,98910.63
2023-05-15T01:09:24.663Z,98905.00
2023-05-15T01:11:54.759Z,98901.13
2023-05-15T01:14:21.506Z,98906.63
2023-05-15T01:16:48.270Z,98898.59
2023-05-15T01:19:15.226Z,98899.75
2023-05-15T01:21:51.086Z,98896.34
2023-05-15T01:24:31.164Z,98896.56
2023-05-15T01:27:17.133Z,98893.38
2023-05-15T01:29:55.361Z,98895.03
2023-05-15T01:32:40.382Z,98899.94
2023-05-15T01:35:33.535Z,98894.41
2023-05-15T01:38:23.149Z,98897.72
2023-05-15T01:40:59.761Z,98896.75
2023-05-15T01:43:29.468Z,98896.03
2023-05-15T01:45:57.298Z,98878.44
2023-05-15T01:48:27.188Z,98881.66
2023-05-15T01:51:01.791Z,98880.03
2023-05-15T01:53:32.069Z,98880.94
2023-05-15T01:56:00.177Z,98876.28
2023-05-15T01:58:28.226Z,98873.28
2023-05-15T02:00:56.173Z,98883.94
2023-05-15T02:03:23.839Z,98881.44
2023-05-15T02:05:51.985Z,98883.06
2023-05-15T02:08:20.465Z,98870.47
2023-05-15T02:10:48.379Z,98875.03
2023-05-15T02:13:16.896Z,98865.72
2023-05-15T02:15:43.496Z,98865.44
2023-05-15T02:18:10.199Z,98867.97
2023-05-15T02:20:36.829Z,98864.94
2023-05-15T02:23:03.503Z,98866.78
2023-05-15T02:25:43.870Z,98868.34
2023-05-15T02:28:22.498Z,98864.38
2023-05-15T02:31:05.652Z,98870.09
2023-05-15T02:33:49.625Z,98865.91
2023-05-15T02:36:23.432Z,98862.63
2023-05-15T02:38:54.137Z,98853.81
2023-05-15T02:41:21.996Z,98852.47
2023-05-15T02:43:51.688Z,98846.47
2023-05-15T02:46:21.239Z,98847.13
2023-05-15T02:48:48.857Z,98842.38
2023-05-15T02:51:15.908Z,98834.25
2023-05-15T02:53:43.420Z,98825.03
2023-05-15T02:56:10.316Z,98829.41
2023-05-15T02:58:38.044Z,98829.22
2023-05-15T03:01:04.886Z,98832.88
2023-05-15T03:03:31.712Z,98819.63
2023-05-15T03:06:00.748Z,98830.56
2023-05-15T03:08:27.411Z,98828.44
2023-05-15T03:10:54.104Z,98817.78
2023-05-15T03:13:20.813Z,98827.75
2023-05-15T03:15:47.560Z,98819.91
2023-05-15T03:18:15.748Z,98821.28
2023-05-15T03:20:43.810Z,98820.41
2023-05-15T03:23:10.919Z,98816.53
2023-05-15T03:25:37.543Z,98818.47
2023-05-15T03:28:04.118Z,98820.50
2023-05-15T03:30:30.695Z,98826.09
2023-05-15T03:32:57.971Z,98825.72
2023-05-15T03:35:26.240Z,98819.22
2023-05-15T03:37:53.003Z,98835.03
2023-05-15T03:40:19.639Z,98826.22
2023-05-15T03:42:46.451Z,98822.91
2023-05-15T03:45:13.133Z,98818.84
2023-05-15T03:47:39.834Z,98818.19
2023-05-15T03:50:06.889Z,98818.94
2023-05-15T03:52:33.638Z,98812.06
2023-05-15T03:55:01.297Z,98820.13
2023-05-15T03:57:28.030Z,98817.88
2023-05-15T03:59:54.642Z,98808.97
2023-05-15T04:02:21.280Z,98802.59
2023-05-15T04:04:47.940Z,98799.28
2023-05-15T04:07:14.590Z,98806.25
2023-05-15T04:09:41.165Z,98810.13
2023-05-15T04:12:07.923Z,98810.97
2023-05-15T04:14:34.656Z,98812.53
2023-05-15T04:17:01.387Z,98813.13
2023-05-15T04:19:28.424Z,98811.66
2023-05-15T04:21:55.191Z,98801.97
2023-05-15T04:24:21.766Z,98798.81
2023-05-15T04:26:48.501Z,98792.03
2023-05-15T04:29:15.228Z,98787.47
2023-05-15T04:31:41.889Z,98795.38
2023-05-15T04:34:08.520Z,98793.94
2023-05-15T04:36:35.213Z,98796.06
2023-05-15T04:39:01.829Z,98789.28
2023-05-15T04:41:28.483Z,98789.19
2023-05-15T04:43:55.058Z,98789.19
2023-05-15T04:46:21.783Z,98782.72
2023-05-15T04:48:48.425Z,98777.47
2023-05-15T04:51:15.035Z,98782.91
2023-05-15T04:53:41.611Z,98776.00
2023-05-15T04:56:08.225Z,98773.41
2023-05-15T04:58:34.801Z,98773.41
2023-05-15T05:01:03.738Z,98768.34
2023-05-15T05:03:30.943Z,98769.59
2023-05-15T05:05:57.559Z,98772.50
2023-05-15T05:08:24.566Z,98770.38
2023-05-15T05:10:56.510Z,98768.25
2023-05-15T05:13:23.157Z,98763.00
2023-05-15T05:15:49.869Z,98765.44
2023-05-15T05:18:16.666Z,98766.50
2023-05-15T05:20:43.348Z,98762.81
2023-05-15T05:23:10.056Z,98759.91
2023-05-15T05:25:36.763Z,98763.00
2023-05-15T05:28:03.525Z,98758.06
2023-05-15T05:30:30.153Z,98760.75
2023-05-15T05:32:56.855Z,98754.16
2023-05-15T05:35:23.724Z,98756.97
2023-05-15T05:37:50.569Z,98750.28
2023-05-15T05:40:18.339Z,98736.03
2023-05-15T05:42:44.898Z,98736.69
2023-05-15T05:45:11.746Z,98730.88
2023-05-15T05:47:38.437Z,98736.63
2023-05-15T05:50:06.587Z,98733.78
2023-05-15T05:52:33.214Z,98730.91
2023-05-15T05:54:59.833Z,98737.66
2023-05-15T05:57:26.793Z,98732.78
2023-05-15T05:59:53.394Z,98726.63
2023-05-15T06:02:20.075Z,98726.94
2023-05-15T06:04:46.832Z,98723.56
2023-05-15T06:07:13.617Z,98723.75
2023-05-15T06:09:40.281Z,98724.22
2023-05-15T06:12:08.389Z,98720.25
2023-05-15T06:14:35.971Z,98720.00
2023-05-15T06:17:03.115Z,98708.44
2023-05-15T06:19:30.328Z,98717.22
2023-05-15T06:21:57.137Z,98706.16
2023-05-15T06:24:23.729Z,98710.81
2023-05-15T06:26:50.596Z,98703.13
2023-05-15T06:29:19.229Z,98698.66
2023-05-15T06:31:45.845Z,98686.78
2023-05-15T06:34:12.504Z,98694.34
2023-05-15T06:36:39.128Z,98691.41
2023-05-15T06:39:05.997Z,98694.66
2023-05-15T06:41:33.008Z,98694.97
2023-05-15T06:43:59.810Z,98692.34
2023-05-15T06:46:26.451Z,98690.34
2023-05-15T06:48:53.130Z,98692.22
2023-05-15T06:51:19.726Z,98696.38
2023-05-15T06:53:46.598Z,98689.75
2023-05-15T06:56:14.082Z,98686.25
2023-05-15T06:58:40.732Z,98677.00
2023-05-15T07:01:09.483Z,98688.88
2023-05-15T07:03:36.313Z,98684.38
2023-05-15T07:06:04.264Z,98681.91
2023-05-15T07:08:30.994Z,98676.34
2023-05-15T07:10:57.577Z,98678.16
2023-05-15T07:13:24.215Z,98672.91
2023-05-15T07:15:50.909Z,98675.03
2023-05-15T07:18:18.184Z,98673.19
2023-05-15T07:20:45.324Z,98671.13
2023-05-15T07:23:11.969Z,98670.31
2023-05-15T07:25:40.041Z,98666.09
2023-05-15T07:28:06.691Z,98665.13
2023-05-15T07:30:33.263Z,98669.84
2023-05-15T07:33:00.281Z,98666.41
2023-05-15T07:35:27.127Z,98668.34
2023-05-15T07:37:54.109Z,98662.84
2023-05-15T07:40:20.874Z,98662.63
2023-05-15T07:42:47.626Z,98669.03
2023-05-15T07:45:14.478Z,98666.34
2023-05-15T07:47:49.050Z,98662.41
2023-05-15T07:50:16.500Z,98667.94
2023-05-15T07:52:43.478Z,98673.00
2023-05-15T07:55:10.866Z,98673.59
2023-05-15T07:57:37.486Z,98671.09
2023-05-15T08:00:10.181Z,98659.25
2023-05-15T08:02:40.269Z,98671.97
2023-05-15T08:05:07.274Z,98655.25
2023-05-15T08:07:34.954Z,98663.44
2023-05-15T08:10:01.707Z,98666.06
2023-05-15T08:12:28.445Z,98667.94
2023-05-15T08:14:55.622Z,98668.66
2023-05-15T08:17:23.158Z,98663.84
2023-05-15T08:19:49.947Z,98667.63
2023-05-15T08:22:16.978Z,98657.09
2023-05-15T08:24:45.007Z,98655.63
2023-05-15T08:27:11.638Z,98654.84
2023-05-15T08:29:39.743Z,98657.41
2023-05-15T08:32:07.757Z,98662.75
2023-05-15T08:34:34.463Z,98653.94
2023-05-15T08:37:01.233Z,98657.09
2023-05-15T08:39:28.000Z,98664.41
2023-05-15T08:42:03.360Z,98652.16
2023-05-15T08:44:30.940Z,98655.31
2023-05-15T08:46:58.353Z,98656.41
2023-05-15T08:49:31.098Z,98651.59
2023-05-15T08:51:57.839Z,98658.22
2023-05-15T08:54:25.313Z,98659.59
2023-05-15T08:56:52.698Z,98664.41
2023-05-15T08:59:19.570Z,98653.41
2023-05-15T09:01:46.255Z,98653.22
2023-05-15T09:04:13.251Z,98649.97
2023-05-15T09:06:41.541Z,98651.41
2023-05-15T09:09:09.507Z,98652.78
2023-05-15T09:11:37.928Z,98650.84
2023-05-15T09:14:04.716Z,98650.16
2023-05-15T09:16:31.412Z,98649.53
2023-05-15T09:19:00.355Z,98642.50
2023-05-15T09:21:29.687Z,98627.16
2023-05-15T09:24:19.625Z,98639.25
2023-05-15T09:26:47.990Z,98636.34
2023-05-15T09:29:18.902Z,98630.03
2023-05-15T09:31:49.775Z,98635.53
2023-05-15T09:34:16.443Z,98629.75
2023-05-15T09:36:46.413Z,98626.91
2023-05-15T09:39:13.229Z,98622.13
2023-05-15T09:41:44.611Z,98628.53
2023-05-15T09:44:25.694Z,98621.69
2023-05-15T09:46:52.593Z,98623.97
2023-05-15T09:49:19.939Z,98618.25
2023-05-15T09:51:48.741Z,98628.44
2023-05-15T09:54:16.943Z,98632.47
2023-05-15T09:56:45.333Z,98631.31
2023-05-15T09:59:16.551Z,98631.97
2023-05-15T10:01:47.083Z,98628.34
2023-05-15T10:04:13.881Z,98624.44
2023-05-15T10:06:46.533Z,98624.19
2023-05-15T10:09:17.138Z,98626.78
2023-05-15T10:11:44.935Z,98624.50
2023-05-15T10:14:14.016Z,98621.47
2023-05-15T10:16:45.186Z,98627.75
2023-05-15T10:19:13.574Z,98626.03
2023-05-15T10:21:42.206Z,98622.00
2023-05-15T10:24:10.773Z,98618.53
2023-05-15T10:26:41.105Z,98611.47
2023-05-15T10:29:13.033Z,98614.25
2023-05-15T10:31:40.759Z,98619.84
2023-05-15T10:34:09.295Z,98604.22
2023-05-15T10:36:38.002Z,98607.88
2023-05-15T10:39:07.376Z,98603.72
2023-05-15T10:41:36.787Z,98596.25
2023-05-15T10:44:03.546Z,98601.41
2023-05-15T10:46:34.128Z,98603.94
2023-05-15T10:49:01.676Z,98595.09
2023-05-15T10:51:31.612Z,98594.41
2023-05-15T10:54:01.007Z,98594.28
2023-05-15T10:56:31.149Z,98588.53
2023-05-15T10:58:58.169Z,98582.66
2023-05-15T11:01:24.833Z,98572.63
2023-05-15T11:03:53.115Z,98576.19
2023-05-15T11:06:31.144Z,98575.00
2023-05-15T11:09:33.757Z,98577.16
2023-05-15T11:12:02.848Z,98564.50
2023-05-15T11:14:31.569Z,98555.03
2023-05-15T11:16:59.801Z,98549.81
2023-05-15T11:19:29.469Z,98543.56
2023-05-15T11:22:15.329Z,98540.16
2023-05-15T11:25:12.408Z,98546.63
2023-05-15T11:27:44.121Z,98552.38
2023-05-15T11:30:22.221Z,98548.16
2023-05-15T11:32:49.360Z,98536.00
2023-05-15T11:35:21.348Z,98534.47
2023-05-15T11:37:54.227Z,98537.84
2023-05-15T11:40:29.597Z,98531.19
2023-05-15T11:43:06.846Z,98531.91
2023-05-15T11:45:38.063Z,98532.28
2023-05-15T11:48:07.129Z,98531.88
2023-05-15T11:50:35.504Z,98533.19
2023-05-15T11:53:04.532Z,98538.94
2023-05-15T11:55:35.811Z,98540.22
2023-05-15T11:58:04.166Z,98546.91
2023-05-15T12:00:31.346Z,98557.72
2023-05-15T12:02:58.040Z,98554.00
2023-05-15T12:05:24.849Z,98557.16
2023-05-15T12:07:52.349Z,98553.06
2023-05-15T12:10:19.103Z,98561.16
2023-05-15T12:12:46.420Z,98557.56
2023-05-15T12:15:15.125Z,98553.75
2023-05-15T12:17:43.141Z,98540.34
2023-05-15T12:20:12.380Z,98540.59
2023-05-15T12:22:39.872Z,98540.59
2023-05-15T12:25:07.914Z,98537.00
2023-05-15T12:27:36.321Z,98539.16
2023-05-15T12:30:04.293Z,98539.34
2023-05-15T12:32:33.575Z,98536.03
2023-05-15T12:35:01.443Z,98526.22
2023-05-15T12:37:28.269Z,98533.97
2023-05-15T12:40:01.361Z,98534.94
2023-05-15T12:42:28.045Z,98534.41
2023-05-15T12:44:56.073Z,98534.03
2023-05-15T12:47:27.424Z,98523.44
2023-05-15T12:49:57.310Z,98522.84
2023-05-15T12:52:27.960Z,98530.19
2023-05-15T12:54:54.545Z,98517.25
2023-05-15T12:57:21.463Z,98520.94
2023-05-15T12:59:48.486Z,98514.34
2023-05-15T13:02:17.068Z,98517.16
2023-05-15T13:04:46.781Z,98519.88
2023-05-15T13:07:17.320Z,98521.72
2023-05-15T13:09:44.894Z,98518.50
2023-05-15T13:12:12.187Z,98514.16
2023-05-15T13:14:38.803Z,98513.00
2023-05-15T13:17:05.870Z,98505.16
2023-05-15T13:19:32.466Z,98506.19
2023-05-15T13:21:59.114Z,98504.75
2023-05-15T13:24:26.044Z,98504.66
2023-05-15T13:26:52.959Z,98499.53
2023-05-15T13:29:20.215Z,98494.72
2023-05-15T13:31:47.132Z,98498.09
2023-05-15T13:34:13.864Z,98485.09
2023-05-15T13:36:40.474Z,98484.59
2023-05-15T13:39:07.152Z,98490.16
2023-05-15T13:41:33.821Z,98489.59
2023-05-15T13:44:00.454Z,98486.00
2023-05-15T13:46:27.355Z,98487.31
2023-05-15T13:48:53.991Z,98489.19
2023-05-15T13:51:20.619Z,98485.13
2023-05-15T13:53:47.237Z,98486.13
2023-05-15T13:56:14.279Z,98476.97
2023-05-15T13:58:41.419Z,98482.44
2023-05-15T14:01:08.101Z,98479.69
2023-05-15T14:03:34.976Z,98486.19
2023-05-15T14:06:01.665Z,98497.47
2023-05-15T14:08:28.198Z,98496.72
2023-05-15T14:10:57.275Z,98485.63
2023-05-15T14:13:24.343Z,98490.47
2023-05-15T14:15:51.132Z,98478.28
2023-05-15T14:18:17.840Z,98482.50
2023-05-15T14:20:44.606Z,98480.41
2023-05-15T14:23:11.149Z,98486.06
2023-05-15T14:25:37.793Z,98488.28
2023-05-15T14:28:04.450Z,98482.16
2023-05-15T14:30:31.064Z,98483.56
2023-05-15T14:32:57.773Z,98477.63
2023-05-15T14:35:24.680Z,98471.97
2023-05-15T14:37:51.366Z,98468.91
2023-05-15T14:40:18.171Z,98464.78
2023-05-15T14:42:44.726Z,98466.41
2023-05-15T14:45:11.521Z,98464.56
2023-05-15T14:47:38.277Z,98464.34
2023-05-15T14:50:05.233Z,98457.56
2023-05-15T14:52:31.829Z,98462.19
2023-05-15T14:55:08.397Z,98462.44
2023-05-15T14:57:36.829Z,98462.38
2023-05-15T15:00:06.152Z,98460.09
2023-05-15T15:02:32.974Z,98468.03
2023-05-15T15:04:59.734Z,98464.19
2023-05-15T15:07:29.686Z,98463.78
2023-05-15T15:09:56.321Z,98458.56
2023-05-15T15:12:23.045Z,98467.31
2023-05-15T15:14:49.653Z,98463.63
2023-05-15T15:17:16.254Z,98457.84
2023-05-15T15:19:42.844Z,98457.66
2023-05-15T15:22:09.394Z,98460.22
2023-05-15T15:24:35.994Z,98459.47
2023-05-15T15:27:02.610Z,98457.16
2023-05-15T15:29:29.196Z,98462.03
2023-05-15T15:31:55.927Z,98459.81
2023-05-15T15:34:22.545Z,98464.56
2023-05-15T15:36:49.167Z,98466.63
2023-05-15T15:39:16.351Z,98469.88
2023-05-15T15:41:42.918Z,98474.94
2023-05-15T15:44:09.547Z,98481.72
2023-05-15T15:46:36.216Z,98482.94
2023-05-15T15:49:04.463Z,98494.19
2023-05-15T15:51:32.594Z,98494.97
2023-05-15T15:53:59.156Z,98488.66
2023-05-15T15:56:25.983Z,98499.19
2023-05-15T15:58:52.578Z,98503.94
2023-05-15T16:01:19.286Z,98513.03
2023-05-15T16:03:46.079Z,98532.66
2023-05-15T16:06:12.911Z,98525.88
2023-05-15T16:08:39.506Z,98537.72
2023-05-15T16:11:06.270Z,98535.81
2023-05-15T16:13:32.958Z,98525.38
2023-05-15T16:15:59.564Z,98517.41
2023-05-15T16:18:26.140Z,98512.38
2023-05-15T16:20:52.905Z,98506.78
2023-05-15T16:23:21.167Z,98502.28
2023-05-15T16:25:48.682Z,98514.78
2023-05-15T16:28:15.379Z,98510.81
2023-05-15T16:30:48.797Z,98512.13
2023-05-15T16:33:17.887Z,98507.75
2023-05-15T16:35:45.519Z,98514.34
2023-05-15T16:38:12.283Z,98514.59
2023-05-15T16:40:39.100Z,98523.97
2023-05-15T16:43:07.009Z,98521.91
2023-05-15T16:45:33.593Z,98527.44
2023-05-15T16:48:00.314Z,98534.34
2023-05-15T16:50:27.276Z,98539.75
2023-05-15T16:52:53.979Z,98537.56
2023-05-15T16:55:20.664Z,98551.94
2023-05-15T16:57:47.552Z,98542.03
2023-05-15T17:00:15.390Z,98543.03
2023-05-15T17:02:42.488Z,98538.41
2023-05-15T17:05:10.839Z,98542.78
2023-05-15T17:07:38.387Z,98538.94
2023-05-15T17:10:08.870Z,98540.16
2023-05-15T17:12:35.957Z,98545.09
2023-05-15T17:15:03.660Z,98543.22
2023-05-15T17:17:31.328Z,98555.41
2023-05-15T17:19:58.933Z,98548.63
2023-05-15T17:22:25.977Z,98553.09
2023-05-15T17:24:52.798Z,98558.03
2023-05-15T17:27:20.057Z,98555.41
2023-05-15T17:29:47.324Z,98559.91
2023-05-15T17:32:14.254Z,98559.91
2023-05-15T17:34:41.197Z,98555.09
2023-05-15T17:37:08.936Z,98554.75
2023-05-15T17:39:36.545Z,98556.19
2023-05-15T17:42:04.926Z,98570.97
2023-05-15T17:44:31.659Z,98572.34
2023-05-15T17:46:58.756Z,98573.31
2023-05-15T17:49:26.158Z,98578.78
2023-05-15T17:51:53.504Z,98581.91
2023-05-15T17:54:20.487Z,98586.41
2023-05-15T17:56:48.387Z,98585.31
2023-05-15T17:59:15.605Z,98610.22
2023-05-15T18:01:42.369Z,98613.34
2023-05-15T18:04:09.310Z,98605.78
2023-05-15T18:06:36.142Z,98596.09
2023-05-15T18:09:03.291Z,98601.53
2023-05-15T18:11:30.201Z,98585.50
2023-05-15T18:13:56.984Z,98608.28
2023-05-15T18:16:23.854Z,98602.44
2023-05-15T18:18:52.195Z,98605.50
2023-05-15T18:21:19.234Z,98609.41
2023-05-15T18:23:46.043Z,98617.75
2023-05-15T18:26:12.675Z,98621.16
2023-05-15T18:28:39.355Z,98609.41
2023-05-15T18:31:06.098Z,98598.91
2023-05-15T18:33:33.902Z,98595.50
2023-05-15T18:36:00.561Z,98613.00
2023-05-15T18:38:27.214Z,98614.91
2023-05-15T18:40:53.908Z,98622.03
2023-05-15T18:43:20.550Z,98622.34
2023-05-15T18:45:48.304Z,98631.47
2023-05-15T18:48:15.039Z,98635.50
2023-05-15T18:50:41.862Z,98631.50
2023-05-15T18:53:08.496Z,98630.31
2023-05-15T18:55:35.124Z,98637.66
2023-05-15T18:58:01.711Z,98638.91
2023-05-15T19:00:37.787Z,98637.41
2023-05-15T19:03:06.461Z,98647.00
2023-05-15T19:05:34.006Z,98647.94
2023-05-15T19:08:01.166Z,98647.34
2023-05-15T19:10:29.761Z,98651.03
2023-05-15T19:12:59.560Z,98662.78
2023-05-15T19:15:26.660Z,98667.41
2023-05-15T19:17:53.430Z,98666.78
2023-05-15T19:20:20.494Z,98664.94
2023-05-15T19:22:50.500Z,98658.13
2023-05-15T19:25:17.399Z,98664.63
2023-05-15T19:27:44.167Z,98662.44
2023-05-15T19:30:11.112Z,98668.63
2023-05-15T19:32:39.443Z,98664.16
2023-05-15T19:35:06.186Z,98666.91
2023-05-15T19:37:32.804Z,98667.38
2023-05-15T19:39:59.395Z,98674.63
2023-05-15T19:42:26.496Z,98671.84
2023-05-15T19:44:53.127Z,98674.34
2023-05-15T19:47:20.118Z,98671.56
2023-05-15T19:49:46.726Z,98679.13
2023-05-15T19:52:13.329Z,98677.59
2023-05-15T19:54:39.916Z,98679.91
2023-05-15T19:57:07.032Z,98688.25
2023-05-15T19:59:33.594Z,98693.50
2023-05-15T20:02:01.534Z,98698.44
2023-05-15T20:04:28.314Z,98699.31
2023-05-15T20:06:54.929Z,98697.78
2023-05-15T20:09:21.546Z,98697.63
2023-05-15T20:11:48.110Z,98697.91
2023-05-15T20:14:15.267Z,98693.13
2023-05-15T20:16:41.997Z,98696.69
2023-05-15T20:19:10.896Z,98690.38
2023-05-15T20:21:38.900Z,98696.09
2023-05-15T20:24:06.050Z,98700.25
2023-05-15T20:26:32.782Z,98700.25
2023-05-15T20:28:59.491Z,98704.09
2023-05-15T20:31:26.119Z,98710.56
2023-05-15T20:33:52.765Z,98702.06
2023-05-15T20:36:20.176Z,98700.38
2023-05-15T20:38:48.187Z,98700.19
2023-05-15T20:41:16.407Z,98706.53
2023-05-15T20:43:43.026Z,98708.22
2023-05-15T20:46:09.747Z,98711.00
2023-05-15T20:48:36.447Z,98711.47
2023-05-15T20:51:03.242Z,98710.25
2023-05-15T20:53:29.970Z,98713.19
2023-05-15T20:55:56.746Z,98706.56
2023-05-15T20:58:23.359Z,98700.84
2023-05-15T21:00:49.990Z,98706.41
2023-05-15T21:03:16.738Z,98699.75
2023-05-15T21:05:43.434Z,98697.41
2023-05-15T21:08:10.045Z,98698.34
2023-05-15T21:10:36.643Z,98697.41
2023-05-15T21:13:03.547Z,98692.75
2023-05-15T21:15:30.153Z,98695.53
2023-05-15T21:17:56.884Z,98686.41
2023-05-15T21:20:23.604Z,98694.25
2023-05-15T21:22:51.229Z,98694.53
2023-05-15T21:25:19.148Z,98693.38
2023-05-15T21:27:45.859Z,98694.59
2023-05-15T21:30:13.113Z,98695.97
2023-05-15T21:32:39.766Z,98697.06
2023-05-15T21:35:06.549Z,98699.75
2023-05-15T21:37:33.192Z,98703.97
2023-05-15T21:39:59.817Z,98704.31
2023-05-15T21:42:26.505Z,98695.41
2023-05-15T21:44:53.148Z,98703.91
2023-05-15T21:47:19.784Z,98704.53
2023-05-15T21:49:46.458Z,98703.63
2023-05-15T21:52:13.037Z,98704.38
2023-05-15T21:54:39.720Z,98700.69
2023-05-15T21:57:06.765Z,98698.22
2023-05-15T21:59:33.323Z,98701.47
2023-05-15T22:02:00.022Z,98710.88
2023-05-15T22:04:28.624Z,98714.59
2023-05-15T22:06:55.426Z,98717.53
2023-05-15T22:09:22.041Z,98722.59
2023-05-15T22:11:48.609Z,98714.88
2023-05-15T22:14:15.278Z,98719.03
2023-05-15T22:16:42.074Z,98708.41
2023-05-15T22:19:15.878Z,98716.56
2023-05-15T22:21:48.528Z,98723.97
2023-05-15T22:24:15.214Z,98722.72
2023-05-15T22:26:42.151Z,98726.72
2023-05-15T22:29:08.920Z,98731.50
2023-05-15T22:31:35.541Z,98736.59
2023-05-15T22:34:02.238Z,98735.34
2023-05-15T22:36:28.878Z,98739.66
2023-05-15T22:38:55.585Z,98744.41
2023-05-15T22:41:22.208Z,98743.34
2023-05-15T22:43:48.782Z,98747.50
2023-05-15T22:46:16.248Z,98744.41
2023-05-15T22:48:42.950Z,98753.66
2023-05-15T22:51:10.314Z,98751.94
2023-05-15T22:53:37.048Z,98751.00
2023-05-15T22:56:03.694Z,98758.41
2023-05-15T22:58:30.300Z,98756.22
2023-05-15T23:00:56.892Z,98770.22
2023-05-15T23:03:23.681Z,98767.69
2023-05-15T23:05:53.055Z,98768.59
2023-05-15T23:08:19.738Z,98762.41
2023-05-15T23:10:46.522Z,98766.88
2023-05-15T23:13:13.444Z,98763.78
2023-05-15T23:15:41.088Z,98766.28
2023-05-15T23:18:08.683Z,98764.25
2023-05-15T23:20:35.430Z,98763.47
2023-05-15T23:23:02.019Z,98768.25
2023-05-15T23:25:28.625Z,98769.50
2023-05-15T23:27:55.476Z,98770.88
2023-05-15T23:30:22.216Z,98772.72
2023-05-15T23:32:48.899Z,98767.78
2023-05-15T23:35:15.600Z,98766.69
2023-05-15T23:37:42.193Z,98776.69
2023-05-15T23:40:09.292Z,98777.59
2023-05-15T23:42:36.029Z,98782.19
2023-05-15T23:45:03.148Z,98776.19
2023-05-15T23:47:29.911Z,98788.19
2023-05-15T23:49:56.564Z,98786.66
2023-05-15T23:52:23.266Z,98798.38
2023-05-15T23:54:50.027Z,98799.28
2023-05-15T23:57:17.149Z,98803.81
2023-05-15T23:59:43.923Z,98802.00
